This is the latest recevied weather packets stored in our database for station/object KI6AOK. If no packets are shown the sender has not sent any weather packets the latest 10 day(s).
| Time | Temp. | Humidity | Pressure | Rain* | Wind** | Luminosity | Snow |
|---|---|---|---|---|---|---|---|
| 1777140675 | 18.33° C | 61% | 1013.2 hPa | 0 mm | - | 385 W/m² | - |
| 1777140372 | 18.33° C | 61% | 1013.2 hPa | 0 mm | - | 376 W/m² | - |
| 1777140070 | 18.33° C | 60% | 1013.1 hPa | 0 mm | - | 348 W/m² | - |
| 1777139768 | 18.33° C | 61% | 1013.1 hPa | 0 mm | - | 389 W/m² | - |
| 1777139463 | 18.89° C | 61% | 1013.4 hPa | 0 mm | - | 365 W/m² | - |
| 1777139158 | 19.44° C | 58% | 1013.1 hPa | 0 mm | - | 542 W/m² | - |
| 1777138855 | 18.89° C | 59% | 1013.3 hPa | 0 mm | - | 263 W/m² | - |
| 1777138550 | 18.33° C | 61% | 1013.3 hPa | 0 mm | - | 729 W/m² | - |
| 1777138247 | 17.78° C | 63% | 1013.2 hPa | 0 mm | - | 739 W/m² | - |
| 1777137943 | 17.78° C | 62% | 1013.3 hPa | 0 mm | - | 360 W/m² | - |
| 1777137639 | 18.89° C | 60% | 1013.5 hPa | 0 mm | - | 158 W/m² | - |
| 1777137337 | 18.89° C | 60% | 1013.3 hPa | 0 mm | - | 337 W/m² | - |
| 1777137034 | 18.33° C | 61% | 1013.3 hPa | 0 mm | - | 927 W/m² | - |
| 1777136730 | 17.78° C | 63% | 1013 hPa | 0 mm | - | 829 W/m² | - |
| 1777136428 | 18.33° C | 61% | 1013.1 hPa | 0 mm | - | 351 W/m² | - |
| 1777136125 | 17.78° C | 64% | 1013.1 hPa | 0 mm | - | 591 W/m² | - |
| 1777135821 | 17.78° C | 63% | 1013.3 hPa | 0 mm | - | 244 W/m² | - |
| 1777135517 | 17.78° C | 64% | 1013 hPa | 0 mm | - | 345 W/m² | - |
| 1777135214 | 17.78° C | 65% | 1013.2 hPa | 0 mm | - | 553 W/m² | - |
| 1777134911 | 16.67° C | 68% | 1013.3 hPa | 0 mm | - | 764 W/m² | - |
| 1777134608 | 16.11° C | 70% | 1013.3 hPa | 0 mm | - | 375 W/m² | - |
| 1777134303 | 16.11° C | 69% | 1013.4 hPa | 0 mm | - | 279 W/m² | - |
| 1777134000 | 16.67° C | 68% | 1013.4 hPa | 0 mm | - | 176 W/m² | - |
| 1777133696 | 16.67° C | 70% | 1013.2 hPa | 0 mm | - | 214 W/m² | - |
| 1777133396 | 16.11° C | 70% | 1013.2 hPa | 0 mm | - | 237 W/m² | - |
* Rain latest hour (hover to see other rain measurements)
** Current wind speed in m/s (hover to see current wind gust speed)